createdAt,value
2022-10-01T00:01:37.541Z,10.06
2022-10-01T00:07:03.152Z,9.96
2022-10-01T00:12:23.861Z,9.82
2022-10-01T00:17:44.580Z,9.73
2022-10-01T00:23:05.147Z,9.70
2022-10-01T00:28:26.234Z,9.66
2022-10-01T00:33:47.147Z,9.59
2022-10-01T00:39:10.320Z,9.39
2022-10-01T00:44:38.029Z,9.26
2022-10-01T00:50:20.079Z,9.26
2022-10-01T00:55:48.657Z,9.30
2022-10-01T01:01:10.254Z,9.48
2022-10-01T01:06:30.981Z,9.52
2022-10-01T01:12:11.285Z,9.54
2022-10-01T01:17:50.947Z,9.44
2022-10-01T01:23:36.678Z,9.48
2022-10-01T01:29:04.679Z,9.30
2022-10-01T01:34:30.767Z,9.07
2022-10-01T01:39:55.270Z,9.10
2022-10-01T01:45:21.822Z,8.97
2022-10-01T01:50:49.121Z,8.88
2022-10-01T01:56:09.841Z,8.64
2022-10-01T02:01:40.137Z,8.54
2022-10-01T02:07:28.696Z,8.70
2022-10-01T02:13:04.296Z,8.91
2022-10-01T02:18:34.579Z,8.99
2022-10-01T02:24:01.051Z,8.96
2022-10-01T02:29:23.938Z,8.92
2022-10-01T02:34:49.392Z,9.01
2022-10-01T02:40:15.924Z,9.07
2022-10-01T02:45:40.394Z,8.99
2022-10-01T02:51:23.016Z,9.01
2022-10-01T02:57:02.223Z,9.10
2022-10-01T03:02:23.914Z,9.08
2022-10-01T03:07:44.621Z,9.00
2022-10-01T03:13:06.561Z,8.98
2022-10-01T03:18:27.299Z,8.96
2022-10-01T03:23:47.849Z,8.91
2022-10-01T03:29:08.493Z,8.72
2022-10-01T03:34:29.188Z,8.86
2022-10-01T03:39:49.964Z,8.93
2022-10-01T03:45:10.752Z,8.98
2022-10-01T03:50:31.757Z,9.04
2022-10-01T03:55:52.509Z,9.09
2022-10-01T04:01:13.242Z,9.12
2022-10-01T04:06:33.818Z,9.22
2022-10-01T04:11:54.950Z,9.23
2022-10-01T04:17:15.403Z,9.24
2022-10-01T04:22:40.414Z,9.24
2022-10-01T04:28:04.080Z,9.18
2022-10-01T04:33:24.893Z,9.20
2022-10-01T04:38:45.954Z,9.20
2022-10-01T04:44:06.716Z,9.23
2022-10-01T04:49:27.843Z,9.27
2022-10-01T04:54:48.621Z,9.34
2022-10-01T05:00:12.180Z,9.36
2022-10-01T05:05:35.055Z,9.35
2022-10-01T05:10:55.735Z,9.34
2022-10-01T05:16:16.453Z,9.33
2022-10-01T05:21:37.667Z,9.43
2022-10-01T05:26:58.643Z,9.53
2022-10-01T05:32:19.776Z,9.71
2022-10-01T05:37:40.617Z,9.63
2022-10-01T05:43:03.151Z,9.63
2022-10-01T05:48:23.962Z,9.60
2022-10-01T05:53:50.215Z,9.76
2022-10-01T05:59:12.089Z,9.86
2022-10-01T06:04:34.757Z,9.98
2022-10-01T06:09:57.225Z,10.05
2022-10-01T06:15:18.718Z,10.19
2022-10-01T06:20:41.083Z,10.30
2022-10-01T06:26:05.607Z,10.21
2022-10-01T06:31:26.610Z,10.15
2022-10-01T06:36:47.162Z,10.17
2022-10-01T06:42:07.761Z,10.06
2022-10-01T06:47:28.621Z,10.12
2022-10-01T06:52:50.555Z,10.10
2022-10-01T06:58:21.018Z,10.13
2022-10-01T07:03:41.957Z,10.29
2022-10-01T07:09:02.575Z,10.39
2022-10-01T07:14:23.462Z,10.52
2022-10-01T07:19:43.982Z,10.52
2022-10-01T07:25:05.325Z,10.44
2022-10-01T07:30:26.892Z,10.49
2022-10-01T07:35:48.360Z,10.34
2022-10-01T07:41:09.687Z,10.36
2022-10-01T07:46:34.505Z,10.52
2022-10-01T07:51:55.829Z,10.51
2022-10-01T07:57:16.565Z,10.66
2022-10-01T08:02:37.707Z,10.96
2022-10-01T08:08:06.790Z,11.22
2022-10-01T08:13:27.371Z,11.44
2022-10-01T08:18:47.836Z,11.49
2022-10-01T08:24:09.245Z,11.57
2022-10-01T08:29:30.018Z,11.72
2022-10-01T08:34:56.484Z,11.82
2022-10-01T08:40:21.672Z,11.95
2022-10-01T08:45:47.670Z,12.00
2022-10-01T08:51:15.562Z,12.19
2022-10-01T08:56:46.311Z,12.38
2022-10-01T09:02:21.387Z,12.54
2022-10-01T09:08:01.163Z,12.73
2022-10-01T09:13:40.489Z,12.76
2022-10-01T09:19:32.352Z,12.72
2022-10-01T09:25:25.684Z,12.72
2022-10-01T09:31:01.417Z,12.67
2022-10-01T09:37:01.167Z,12.65
2022-10-01T09:42:26.560Z,12.71
2022-10-01T09:47:51.459Z,12.76
2022-10-01T09:53:19.523Z,12.72
2022-10-01T09:58:42.830Z,12.79
2022-10-01T10:04:03.711Z,12.82
2022-10-01T10:09:30.768Z,12.89
2022-10-01T10:14:51.457Z,12.89
2022-10-01T10:20:23.400Z,12.91
2022-10-01T10:25:44.349Z,12.93
2022-10-01T10:31:11.289Z,13.00
2022-10-01T10:36:35.874Z,13.11
2022-10-01T10:41:58.882Z,13.11
2022-10-01T10:47:21.906Z,13.18
2022-10-01T10:52:45.728Z,13.14
2022-10-01T10:58:11.046Z,13.18
2022-10-01T11:03:33.283Z,13.27
2022-10-01T11:09:07.401Z,13.25
2022-10-01T11:14:34.303Z,13.27
2022-10-01T11:20:04.611Z,13.26
2022-10-01T11:26:06.071Z,13.25
2022-10-01T11:31:43.434Z,13.28
2022-10-01T11:37:35.608Z,13.19
2022-10-01T11:43:04.171Z,13.11
2022-10-01T11:48:31.547Z,12.93
2022-10-01T11:54:04.111Z,12.84
2022-10-01T11:59:43.399Z,12.73
2022-10-01T12:05:15.288Z,12.65
2022-10-01T12:10:44.857Z,12.65
2022-10-01T12:16:20.017Z,12.66
2022-10-01T12:21:51.887Z,12.69
2022-10-01T12:27:31.188Z,12.69
2022-10-01T12:33:04.985Z,12.60
2022-10-01T12:38:47.255Z,12.56
2022-10-01T12:44:38.141Z,12.42
2022-10-01T12:50:06.296Z,12.35
2022-10-01T12:55:54.933Z,12.32
2022-10-01T13:01:41.158Z,12.21
2022-10-01T13:07:31.683Z,12.17
2022-10-01T13:13:21.572Z,11.94
2022-10-01T13:18:51.778Z,11.80
2022-10-01T13:24:34.152Z,11.65
2022-10-01T13:30:14.073Z,11.55
2022-10-01T13:35:39.608Z,11.51
2022-10-01T13:41:06.900Z,11.48
2022-10-01T13:46:31.291Z,11.45
2022-10-01T13:51:53.039Z,11.42
2022-10-01T13:57:34.743Z,11.42
2022-10-01T14:03:39.346Z,11.46
2022-10-01T14:09:15.475Z,11.47
2022-10-01T14:14:58.590Z,11.56
2022-10-01T14:20:23.499Z,11.56
2022-10-01T14:25:50.316Z,11.50
2022-10-01T14:31:29.518Z,11.53
2022-10-01T14:36:53.586Z,11.58
2022-10-01T14:42:18.396Z,11.59
2022-10-01T14:47:40.342Z,11.57
2022-10-01T14:53:01.575Z,11.53
2022-10-01T14:58:35.948Z,11.47
2022-10-01T15:03:56.686Z,11.39
2022-10-01T15:09:19.229Z,11.35
2022-10-01T15:14:41.266Z,11.25
2022-10-01T15:20:02.742Z,11.19
2022-10-01T15:25:26.708Z,11.21
2022-10-01T15:30:47.508Z,11.23
2022-10-01T15:36:15.518Z,11.31
2022-10-01T15:41:37.777Z,11.31
2022-10-01T15:47:20.640Z,11.19
2022-10-01T15:52:54.265Z,11.19
2022-10-01T15:58:37.165Z,11.18
2022-10-01T16:04:04.267Z,11.24
2022-10-01T16:09:30.808Z,11.21
2022-10-01T16:15:03.932Z,11.26
2022-10-01T16:20:39.013Z,11.27
2022-10-01T16:26:00.007Z,11.13
2022-10-01T16:31:20.844Z,11.09
2022-10-01T16:36:41.586Z,11.03
2022-10-01T16:42:22.800Z,11.04
2022-10-01T16:47:44.116Z,11.06
2022-10-01T16:53:05.145Z,11.04
2022-10-01T16:58:26.086Z,11.05
2022-10-01T17:03:47.179Z,11.03
2022-10-01T17:09:08.279Z,11.05
2022-10-01T17:14:28.901Z,11.04
2022-10-01T17:19:49.864Z,11.07
2022-10-01T17:25:19.388Z,11.09
2022-10-01T17:30:46.575Z,11.08
2022-10-01T17:36:09.261Z,11.07
2022-10-01T17:41:29.997Z,11.01
2022-10-01T17:46:50.472Z,11.02
2022-10-01T17:52:11.782Z,11.05
2022-10-01T17:57:32.899Z,11.08
2022-10-01T18:02:54.034Z,11.07
2022-10-01T18:08:15.459Z,11.02
2022-10-01T18:13:37.171Z,10.97
2022-10-01T18:24:43.457Z,11.03
2022-10-01T18:30:05.755Z,10.98
2022-10-01T18:35:34.489Z,10.89
2022-10-01T18:40:59.870Z,10.87
2022-10-01T18:46:43.962Z,10.79
2022-10-01T18:52:34.285Z,10.85
2022-10-01T18:58:23.288Z,10.83
2022-10-01T19:04:00.714Z,10.86
2022-10-01T19:09:43.021Z,10.93
2022-10-01T19:15:24.779Z,10.94
2022-10-01T19:20:58.297Z,10.95
2022-10-01T19:26:35.073Z,10.96
2022-10-01T19:32:01.697Z,10.91
2022-10-01T19:37:42.507Z,10.89
2022-10-01T19:43:24.407Z,10.93
2022-10-01T19:48:52.566Z,10.94
2022-10-01T19:54:19.590Z,10.94
2022-10-01T19:59:41.548Z,10.89
2022-10-01T20:05:12.654Z,10.89
2022-10-01T20:10:49.134Z,10.88
2022-10-01T20:16:30.377Z,10.95
2022-10-01T20:22:20.016Z,10.95
2022-10-01T20:28:01.300Z,10.93
2022-10-01T20:33:34.813Z,10.96
2022-10-01T20:39:04.636Z,10.96
2022-10-01T20:44:31.941Z,10.98
2022-10-01T20:50:09.323Z,10.95
2022-10-01T20:55:40.949Z,11.01
2022-10-01T21:01:14.033Z,10.92
2022-10-01T21:06:39.830Z,11.00
2022-10-01T21:12:10.385Z,11.00
2022-10-01T21:17:39.042Z,10.97
2022-10-01T21:23:33.606Z,10.96
2022-10-01T21:29:03.588Z,10.95
2022-10-01T21:35:07.734Z,10.96
2022-10-01T21:41:07.196Z,10.92
2022-10-01T21:46:38.551Z,10.93
2022-10-01T21:52:10.735Z,10.96
2022-10-01T21:57:50.076Z,10.94
2022-10-01T22:03:26.260Z,10.92
2022-10-01T22:09:18.575Z,10.98
2022-10-01T22:14:41.368Z,10.88
2022-10-01T22:20:04.718Z,10.79
2022-10-01T22:25:27.041Z,10.83
2022-10-01T22:30:51.435Z,10.76
2022-10-01T22:36:19.700Z,10.73
2022-10-01T22:41:46.809Z,10.76
2022-10-01T22:47:49.846Z,10.77
2022-10-01T22:53:43.307Z,10.76
2022-10-01T22:59:04.128Z,10.75
2022-10-01T23:04:30.809Z,10.78
2022-10-01T23:10:01.526Z,10.80
2022-10-01T23:15:46.497Z,10.78
2022-10-01T23:21:32.715Z,10.84
2022-10-01T23:27:25.399Z,10.84
2022-10-01T23:33:07.983Z,10.75
2022-10-01T23:38:46.446Z,10.76
2022-10-01T23:44:21.959Z,10.77
2022-10-01T23:49:50.961Z,10.76
2022-10-01T23:55:51.380Z,10.81
